createdAt,value
2023-02-15T00:02:04.348Z,99067.20
2023-02-15T00:04:49.685Z,99062.40
2023-02-15T00:07:20.264Z,99064.20
2023-02-15T00:09:48.177Z,99065.80
2023-02-15T00:12:16.602Z,99068.80
2023-02-15T00:14:43.864Z,99064.00
2023-02-15T00:17:11.201Z,99065.00
2023-02-15T00:19:38.458Z,99062.80
2023-02-15T00:22:05.888Z,99053.40
2023-02-15T00:24:33.264Z,99053.60
2023-02-15T00:27:00.820Z,99055.20
2023-02-15T00:29:29.211Z,99052.80
2023-02-15T00:31:56.369Z,99051.40
2023-02-15T00:34:26.661Z,99046.80
2023-02-15T00:36:54.162Z,99047.60
2023-02-15T00:39:22.436Z,99050.00
2023-02-15T00:41:49.672Z,99053.80
2023-02-15T00:44:17.116Z,99055.60
2023-02-15T00:46:48.717Z,99048.60
2023-02-15T00:49:16.049Z,99051.40
2023-02-15T00:51:46.242Z,99045.60
2023-02-15T00:54:13.701Z,99047.20
2023-02-15T00:56:40.953Z,99047.80
2023-02-15T00:59:10.103Z,99039.20
2023-02-15T01:01:37.551Z,99041.40
2023-02-15T01:04:05.026Z,99034.00
2023-02-15T01:06:34.886Z,99033.00
2023-02-15T01:09:02.112Z,99032.20
2023-02-15T01:11:29.784Z,99030.80
2023-02-15T01:13:59.509Z,99022.20
2023-02-15T01:16:29.697Z,99019.00
2023-02-15T01:18:59.945Z,99016.80
2023-02-15T01:21:27.679Z,99015.00
2023-02-15T01:24:00.179Z,99008.80
2023-02-15T01:26:30.607Z,99008.80
2023-02-15T01:29:00.836Z,99006.40
2023-02-15T01:31:31.372Z,99007.20
2023-02-15T01:34:01.787Z,98999.60
2023-02-15T01:36:32.990Z,98998.20
2023-02-15T01:39:00.185Z,98987.80
2023-02-15T01:41:28.278Z,98989.60
2023-02-15T01:44:01.094Z,98984.00
2023-02-15T01:46:49.587Z,98985.00
2023-02-15T01:49:20.177Z,98979.00
2023-02-15T01:51:50.491Z,98979.80
2023-02-15T01:54:22.405Z,98978.20
2023-02-15T01:56:49.965Z,98976.00
2023-02-15T01:59:22.984Z,98976.20
2023-02-15T02:01:53.469Z,98967.80
2023-02-15T02:04:41.060Z,98965.40
2023-02-15T02:07:11.098Z,98962.60
2023-02-15T02:09:38.996Z,98957.60
2023-02-15T02:12:10.130Z,98954.00
2023-02-15T02:14:41.592Z,98950.40
2023-02-15T02:17:17.839Z,98942.40
2023-02-15T02:20:16.627Z,98935.60
2023-02-15T02:23:04.708Z,98933.00
2023-02-15T02:25:59.470Z,98927.40
2023-02-15T02:28:54.813Z,98925.20
2023-02-15T02:31:57.303Z,98920.80
2023-02-15T02:34:35.039Z,98919.00
2023-02-15T02:37:23.783Z,98919.20
2023-02-15T02:40:18.235Z,98918.80
2023-02-15T02:42:59.988Z,98918.40
2023-02-15T02:45:33.795Z,98918.60
2023-02-15T02:48:09.240Z,98919.40
2023-02-15T02:50:36.488Z,98914.20
2023-02-15T02:53:04.107Z,98909.80
2023-02-15T02:55:48.425Z,98911.20
2023-02-15T02:58:25.949Z,98907.80
2023-02-15T03:01:02.728Z,98901.40
2023-02-15T03:03:42.134Z,98902.80
2023-02-15T03:06:19.134Z,98900.20
2023-02-15T03:08:51.839Z,98897.00
2023-02-15T03:11:22.096Z,98896.20
2023-02-15T03:13:54.157Z,98894.40
2023-02-15T03:16:28.127Z,98892.40
2023-02-15T03:19:07.814Z,98892.20
2023-02-15T03:21:41.516Z,98894.80
2023-02-15T03:24:16.648Z,98891.40
2023-02-15T03:26:48.816Z,98890.20
2023-02-15T03:29:18.079Z,98897.00
2023-02-15T03:31:52.150Z,98894.40
2023-02-15T03:34:19.937Z,98895.20
2023-02-15T03:37:33.900Z,98901.60
2023-02-15T03:40:30.350Z,98901.00
2023-02-15T03:43:14.638Z,98898.20
2023-02-15T03:45:55.856Z,98892.80
2023-02-15T03:48:27.590Z,98896.80
2023-02-15T03:51:17.956Z,98892.40
2023-02-15T03:53:48.345Z,98888.80
2023-02-15T03:56:15.423Z,98891.80
2023-02-15T03:59:01.214Z,98898.40
2023-02-15T04:01:54.487Z,98889.60
2023-02-15T04:04:27.734Z,98892.80
2023-02-15T04:07:07.654Z,98894.80
2023-02-15T04:09:53.733Z,98892.00
2023-02-15T04:12:24.139Z,98893.20
2023-02-15T04:15:10.207Z,98892.80
2023-02-15T04:17:38.861Z,98894.60
2023-02-15T04:20:25.751Z,98899.20
2023-02-15T04:23:11.110Z,98896.80
2023-02-15T04:25:38.354Z,98891.80
2023-02-15T04:28:08.374Z,98889.60
2023-02-15T04:30:35.611Z,98884.40
2023-02-15T04:33:05.561Z,98888.60
2023-02-15T04:35:34.557Z,98888.40
2023-02-15T04:38:01.784Z,98888.20
2023-02-15T04:40:31.936Z,98887.00
2023-02-15T04:43:08.538Z,98884.80
2023-02-15T04:45:35.593Z,98887.00
2023-02-15T04:48:02.497Z,98885.80
2023-02-15T04:50:29.652Z,98885.80
2023-02-15T04:52:56.623Z,98883.00
2023-02-15T04:55:23.801Z,98883.80
2023-02-15T04:58:00.094Z,98881.40
2023-02-15T05:00:28.598Z,98879.20
2023-02-15T05:02:55.595Z,98878.40
2023-02-15T05:05:22.823Z,98877.60
2023-02-15T05:07:52.655Z,98875.80
2023-02-15T05:10:19.913Z,98879.20
2023-02-15T05:12:49.978Z,98881.40
2023-02-15T05:15:17.182Z,98877.60
2023-02-15T05:17:44.270Z,98879.00
2023-02-15T05:20:11.846Z,98880.40
2023-02-15T05:22:39.034Z,98878.00
2023-02-15T05:25:25.248Z,98879.00
2023-02-15T05:28:11.232Z,98880.80
2023-02-15T05:30:40.964Z,98883.20
2023-02-15T05:33:09.034Z,98880.60
2023-02-15T05:35:40.968Z,98886.80
2023-02-15T05:38:13.551Z,98885.80
2023-02-15T05:40:40.885Z,98888.00
2023-02-15T05:43:11.327Z,98888.80
2023-02-15T05:45:38.356Z,98890.20
2023-02-15T05:48:05.451Z,98892.80
2023-02-15T05:50:34.759Z,98891.00
2023-02-15T05:53:01.951Z,98890.20
2023-02-15T05:55:31.449Z,98889.60
2023-02-15T05:58:01.228Z,98890.00
2023-02-15T06:00:30.492Z,98890.40
2023-02-15T06:03:00.270Z,98891.00
2023-02-15T06:05:27.542Z,98892.80
2023-02-15T06:07:54.600Z,98895.60
2023-02-15T06:10:21.985Z,98896.60
2023-02-15T06:12:49.168Z,98902.20
2023-02-15T06:15:16.260Z,98901.80
2023-02-15T06:17:43.716Z,98900.40
2023-02-15T06:20:13.916Z,98904.60
2023-02-15T06:22:44.152Z,98903.20
2023-02-15T06:25:25.553Z,98904.40
2023-02-15T06:27:55.350Z,98909.20
2023-02-15T06:30:22.669Z,98909.80
2023-02-15T06:32:49.862Z,98914.00
2023-02-15T06:35:17.155Z,98918.00
2023-02-15T06:37:46.666Z,98920.00
2023-02-15T06:40:13.880Z,98928.60
2023-02-15T06:42:41.008Z,98929.60
2023-02-15T06:45:08.636Z,98930.20
2023-02-15T06:47:35.792Z,98935.60
2023-02-15T06:50:07.075Z,98934.40
2023-02-15T06:52:35.024Z,98935.80
2023-02-15T06:55:02.488Z,98939.80
2023-02-15T06:57:29.688Z,98942.20
2023-02-15T06:59:59.662Z,98944.60
2023-02-15T07:02:27.035Z,98950.00
2023-02-15T07:04:54.087Z,98943.60
2023-02-15T07:07:21.510Z,98943.00
2023-02-15T07:09:48.445Z,98943.00
2023-02-15T07:12:34.484Z,98940.80
2023-02-15T07:15:10.706Z,98941.20
2023-02-15T07:17:37.928Z,98939.00
2023-02-15T07:20:08.969Z,98940.00
2023-02-15T07:22:38.521Z,98939.00
2023-02-15T07:25:08.048Z,98937.40
2023-02-15T07:27:35.284Z,98934.20
2023-02-15T07:30:06.062Z,98931.00
2023-02-15T07:32:35.157Z,98929.80
2023-02-15T07:35:02.147Z,98930.80
2023-02-15T07:37:29.510Z,98935.40
2023-02-15T07:39:56.692Z,98934.60
2023-02-15T07:42:24.739Z,98940.20
2023-02-15T07:44:51.831Z,98938.60
2023-02-15T07:47:18.694Z,98937.60
2023-02-15T07:49:46.644Z,98938.40
2023-02-15T07:52:14.059Z,98932.40
2023-02-15T07:54:41.184Z,98930.80
2023-02-15T07:57:08.224Z,98938.00
2023-02-15T07:59:35.473Z,98939.20
2023-02-15T08:02:02.419Z,98936.40
2023-02-15T08:04:29.334Z,98932.20
2023-02-15T08:06:59.774Z,98937.80
2023-02-15T08:09:26.926Z,98933.40
2023-02-15T08:11:54.031Z,98934.20
2023-02-15T08:14:26.210Z,98930.60
2023-02-15T08:16:57.775Z,98938.40
2023-02-15T08:19:32.862Z,98938.20
2023-02-15T08:22:08.310Z,98935.60
2023-02-15T08:24:40.997Z,98931.60
2023-02-15T08:27:11.603Z,98928.60
2023-02-15T08:29:42.359Z,98937.00
2023-02-15T08:32:14.852Z,98937.00
2023-02-15T08:34:43.262Z,98934.40
2023-02-15T08:37:10.642Z,98936.00
2023-02-15T08:39:38.118Z,98937.00
2023-02-15T08:42:05.490Z,98936.20
2023-02-15T08:44:32.560Z,98939.40
2023-02-15T08:47:03.837Z,98938.40
2023-02-15T08:49:31.314Z,98936.40
2023-02-15T08:51:58.681Z,98939.60
2023-02-15T08:54:25.790Z,98950.60
2023-02-15T08:56:53.087Z,98955.40
2023-02-15T08:59:22.724Z,98955.60
2023-02-15T09:01:52.054Z,98958.80
2023-02-15T09:04:19.126Z,98953.80
2023-02-15T09:06:49.143Z,98954.80
2023-02-15T09:09:20.027Z,98955.60
2023-02-15T09:11:50.849Z,98959.80
2023-02-15T09:14:22.670Z,98964.20
2023-02-15T09:16:52.090Z,98962.60
2023-02-15T09:19:21.060Z,98960.60
2023-02-15T09:21:48.770Z,98959.40
2023-02-15T09:24:18.030Z,98958.60
2023-02-15T09:26:47.822Z,98959.00
2023-02-15T09:29:16.117Z,98959.00
2023-02-15T09:31:49.918Z,98959.00
2023-02-15T09:34:20.049Z,98956.60
2023-02-15T09:36:47.980Z,98959.60
2023-02-15T09:39:26.411Z,98959.00
2023-02-15T09:41:53.566Z,98962.20
2023-02-15T09:44:47.645Z,98958.60
2023-02-15T09:47:36.542Z,98957.00
2023-02-15T09:50:21.856Z,98951.40
2023-02-15T09:53:17.175Z,98953.80
2023-02-15T09:56:11.225Z,98950.20
2023-02-15T09:58:55.317Z,98950.40
2023-02-15T10:01:47.078Z,98952.60
2023-02-15T10:04:55.419Z,98959.40
2023-02-15T10:07:41.570Z,98960.00
2023-02-15T10:10:33.076Z,98952.80
2023-02-15T10:13:28.665Z,98949.40
2023-02-15T10:16:28.146Z,98939.60
2023-02-15T10:19:18.150Z,98942.80
2023-02-15T10:22:01.003Z,98938.80
2023-02-15T10:24:52.523Z,98936.80
2023-02-15T10:27:23.256Z,98927.60
2023-02-15T10:30:02.815Z,98927.00
2023-02-15T10:32:36.192Z,98924.20
2023-02-15T10:35:20.915Z,98920.80
2023-02-15T10:38:28.859Z,98917.40
2023-02-15T10:41:11.066Z,98912.00
2023-02-15T10:43:56.334Z,98911.20
2023-02-15T10:46:50.352Z,98910.80
2023-02-15T10:49:39.508Z,98908.60
2023-02-15T10:52:18.405Z,98905.00
2023-02-15T10:55:36.961Z,98902.40
2023-02-15T10:58:12.801Z,98897.80
2023-02-15T11:00:51.634Z,98892.40
2023-02-15T11:03:45.102Z,98883.00
2023-02-15T11:06:19.350Z,98881.00
2023-02-15T11:08:58.696Z,98878.40
2023-02-15T11:11:30.762Z,98872.60
2023-02-15T11:14:10.538Z,98866.80
2023-02-15T11:16:46.446Z,98865.60
2023-02-15T11:19:35.244Z,98862.20
2023-02-15T11:22:07.564Z,98859.20
2023-02-15T11:24:47.841Z,98853.80
2023-02-15T11:27:28.182Z,98851.20
2023-02-15T11:30:01.834Z,98849.20
2023-02-15T11:32:34.142Z,98845.00
2023-02-15T11:35:07.672Z,98845.80
2023-02-15T11:37:52.551Z,98853.20
2023-02-15T11:40:25.892Z,98849.00
2023-02-15T11:42:57.172Z,98843.40
2023-02-15T11:45:28.486Z,98841.60
2023-02-15T11:47:57.116Z,98840.20
2023-02-15T11:50:27.153Z,98839.40
2023-02-15T11:52:59.459Z,98832.60
2023-02-15T11:55:29.554Z,98833.60
2023-02-15T11:58:22.424Z,98834.60
2023-02-15T12:00:53.848Z,98832.20
2023-02-15T12:03:29.365Z,98836.00
2023-02-15T12:06:03.747Z,98833.80
2023-02-15T12:08:39.860Z,98832.60
2023-02-15T12:11:16.673Z,98830.40
2023-02-15T12:13:57.655Z,98830.40
2023-02-15T12:16:26.552Z,98829.80
2023-02-15T12:18:58.611Z,98828.60
2023-02-15T12:21:35.248Z,98829.40
2023-02-15T12:24:19.730Z,98829.00
2023-02-15T12:27:00.877Z,98829.40
2023-02-15T12:29:36.474Z,98826.40
2023-02-15T12:32:04.879Z,98823.40
2023-02-15T12:34:40.574Z,98820.80
2023-02-15T12:37:18.319Z,98821.40
2023-02-15T12:39:56.188Z,98822.20
2023-02-15T12:42:24.880Z,98817.00
2023-02-15T12:44:59.195Z,98813.80
2023-02-15T12:47:30.815Z,98808.00
2023-02-15T12:50:17.804Z,98805.40
2023-02-15T12:52:50.148Z,98802.20
2023-02-15T12:55:30.709Z,98803.40
2023-02-15T12:58:21.603Z,98805.60
2023-02-15T13:00:48.844Z,98800.20
2023-02-15T13:03:25.049Z,98800.20
2023-02-15T13:05:54.355Z,98797.40
2023-02-15T13:08:28.322Z,98796.20
2023-02-15T13:11:12.396Z,98788.00
2023-02-15T13:13:56.010Z,98785.00
2023-02-15T13:16:36.170Z,98780.40
2023-02-15T13:19:17.602Z,98778.20
2023-02-15T13:21:48.295Z,98769.00
2023-02-15T13:24:22.447Z,98771.20
2023-02-15T13:26:50.255Z,98773.00
2023-02-15T13:29:50.436Z,98768.00
2023-02-15T13:32:27.008Z,98767.60
2023-02-15T13:34:59.168Z,98762.40
2023-02-15T13:38:07.600Z,98763.20
2023-02-15T13:40:49.056Z,98762.20
2023-02-15T13:43:47.301Z,98756.80
2023-02-15T13:46:25.200Z,98752.80
2023-02-15T13:49:06.933Z,98753.40
2023-02-15T13:52:00.290Z,98754.20
2023-02-15T13:55:04.998Z,98745.80
2023-02-15T13:57:53.536Z,98745.60
2023-02-15T14:00:38.626Z,98743.00
2023-02-15T14:03:17.634Z,98747.00
2023-02-15T14:06:12.945Z,98746.40
2023-02-15T14:08:58.244Z,98744.40
2023-02-15T14:11:56.802Z,98743.40
2023-02-15T14:14:53.243Z,98742.60
2023-02-15T14:17:35.240Z,98746.20
2023-02-15T14:20:18.664Z,98746.80
2023-02-15T14:23:31.484Z,98744.20
2023-02-15T14:26:11.127Z,98745.00
2023-02-15T14:28:51.348Z,98743.60
2023-02-15T14:31:24.703Z,98742.80
2023-02-15T14:33:57.365Z,98739.40
2023-02-15T14:36:26.958Z,98740.80
2023-02-15T14:38:56.886Z,98737.60
2023-02-15T14:41:51.214Z,98736.40
2023-02-15T14:44:34.361Z,98735.00
2023-02-15T14:47:11.613Z,98729.00
2023-02-15T14:49:40.682Z,98726.80
2023-02-15T14:52:11.643Z,98723.40
2023-02-15T14:54:38.707Z,98718.80
2023-02-15T14:57:08.164Z,98717.20
2023-02-15T14:59:53.848Z,98717.40
2023-02-15T15:02:50.068Z,98715.40
2023-02-15T15:05:35.002Z,98713.80
2023-02-15T15:08:04.961Z,98717.40
2023-02-15T15:10:42.667Z,98720.40
2023-02-15T15:13:40.124Z,98722.00
2023-02-15T15:16:40.973Z,98721.40
2023-02-15T15:19:12.926Z,98721.60
2023-02-15T15:21:52.146Z,98729.00
2023-02-15T15:24:37.949Z,98725.00
2023-02-15T15:27:47.109Z,98718.20
2023-02-15T15:30:14.126Z,98715.20
2023-02-15T15:32:59.276Z,98712.60
2023-02-15T15:35:53.836Z,98715.20
2023-02-15T15:38:58.607Z,98709.40
2023-02-15T15:41:39.758Z,98707.20
2023-02-15T15:44:44.014Z,98708.60
2023-02-15T15:47:13.709Z,98703.40
2023-02-15T15:49:41.930Z,98704.20
2023-02-15T15:52:21.024Z,98700.00
2023-02-15T15:54:53.505Z,98698.20
2023-02-15T15:57:31.473Z,98703.40
2023-02-15T16:00:01.941Z,98703.00
2023-02-15T16:02:51.238Z,98701.80
2023-02-15T16:05:18.593Z,98700.20
2023-02-15T16:07:45.607Z,98701.40
2023-02-15T16:10:25.304Z,98701.00
2023-02-15T16:12:53.890Z,98701.80
2023-02-15T16:15:45.565Z,98700.40
2023-02-15T16:18:19.923Z,98706.00
2023-02-15T16:20:55.574Z,98703.40
2023-02-15T16:23:37.814Z,98699.20
2023-02-15T16:26:16.393Z,98702.20
2023-02-15T16:28:55.078Z,98700.20
2023-02-15T16:31:26.160Z,98703.20
2023-02-15T16:33:56.929Z,98704.80
2023-02-15T16:36:28.409Z,98702.00
2023-02-15T16:38:58.881Z,98706.80
2023-02-15T16:41:29.988Z,98706.80
2023-02-15T16:44:02.512Z,98710.00
2023-02-15T16:46:36.730Z,98705.60
2023-02-15T16:49:09.292Z,98711.20
2023-02-15T16:51:37.341Z,98710.40
2023-02-15T16:54:09.396Z,98711.20
2023-02-15T16:56:37.559Z,98711.00
2023-02-15T16:59:05.180Z,98712.20
2023-02-15T17:01:33.973Z,98714.40
2023-02-15T17:04:27.175Z,98716.00
2023-02-15T17:07:19.088Z,98719.20
2023-02-15T17:09:54.792Z,98719.80
2023-02-15T17:12:48.977Z,98720.60
2023-02-15T17:15:36.237Z,98722.60
2023-02-15T17:18:10.160Z,98720.20
2023-02-15T17:20:43.112Z,98721.60
2023-02-15T17:23:45.776Z,98722.00
2023-02-15T17:26:35.018Z,98718.20
2023-02-15T17:29:17.800Z,98724.00
2023-02-15T17:31:49.868Z,98724.40
2023-02-15T17:34:46.180Z,98724.40
2023-02-15T17:37:24.928Z,98730.20
2023-02-15T17:39:52.846Z,98732.80
2023-02-15T17:42:20.522Z,98728.40
2023-02-15T17:44:48.564Z,98731.80
2023-02-15T17:47:19.550Z,98734.20
2023-02-15T17:49:50.442Z,98732.40
2023-02-15T17:52:18.790Z,98732.20
2023-02-15T17:55:04.853Z,98731.60
2023-02-15T17:57:32.627Z,98734.80
2023-02-15T18:00:18.221Z,98729.60
2023-02-15T18:03:05.087Z,98733.60
2023-02-15T18:05:50.886Z,98732.60
2023-02-15T18:08:41.700Z,98733.80
2023-02-15T18:11:29.326Z,98727.80
2023-02-15T18:14:01.827Z,98724.60
2023-02-15T18:16:35.697Z,98731.20
2023-02-15T18:19:05.091Z,98727.80
2023-02-15T18:21:35.138Z,98726.80
2023-02-15T18:24:04.966Z,98730.60
2023-02-15T18:26:32.183Z,98728.00
2023-02-15T18:28:59.283Z,98734.80
2023-02-15T18:31:26.652Z,98735.80
2023-02-15T18:34:00.155Z,98736.00
2023-02-15T18:36:32.913Z,98736.60
2023-02-15T18:39:05.760Z,98737.80
2023-02-15T18:41:37.823Z,98735.80
2023-02-15T18:44:12.392Z,98738.20
2023-02-15T18:46:39.842Z,98743.40
2023-02-15T18:49:06.874Z,98742.60
2023-02-15T18:51:40.169Z,98739.60
2023-02-15T18:54:17.826Z,98749.00
2023-02-15T18:56:46.946Z,98749.00
2023-02-15T18:59:17.755Z,98751.40
2023-02-15T19:01:44.939Z,98753.60
2023-02-15T19:04:12.181Z,98753.40
2023-02-15T19:06:45.648Z,98753.80
2023-02-15T19:09:22.127Z,98747.00
2023-02-15T19:11:56.341Z,98750.20
2023-02-15T19:14:32.337Z,98745.80
2023-02-15T19:17:00.729Z,98748.40
2023-02-15T19:19:28.147Z,98747.80
2023-02-15T19:21:55.964Z,98752.20
2023-02-15T19:24:38.840Z,98749.00
2023-02-15T19:27:08.126Z,98749.00
2023-02-15T19:29:35.237Z,98745.40
2023-02-15T19:32:02.788Z,98743.20
2023-02-15T19:34:29.914Z,98743.60
2023-02-15T19:36:57.124Z,98734.20
2023-02-15T19:39:29.205Z,98736.00
2023-02-15T19:41:57.035Z,98736.60
2023-02-15T19:44:24.721Z,98732.60
2023-02-15T19:46:52.482Z,98730.00
2023-02-15T19:49:19.744Z,98728.20
2023-02-15T19:51:47.800Z,98733.20
2023-02-15T19:54:35.844Z,98730.80
2023-02-15T19:57:03.097Z,98732.60
2023-02-15T19:59:34.196Z,98738.80
2023-02-15T20:02:01.396Z,98735.40
2023-02-15T20:04:31.001Z,98733.40
2023-02-15T20:07:01.946Z,98730.60
2023-02-15T20:09:35.616Z,98738.60
2023-02-15T20:12:02.586Z,98734.20
2023-02-15T20:14:29.934Z,98730.60
2023-02-15T20:16:57.078Z,98730.60
2023-02-15T20:19:24.440Z,98732.00
2023-02-15T20:21:55.875Z,98729.60
2023-02-15T20:24:25.112Z,98729.00
2023-02-15T20:26:52.237Z,98729.80
2023-02-15T20:29:20.115Z,98731.20
2023-02-15T20:31:47.478Z,98731.60
2023-02-15T20:34:14.553Z,98729.20
2023-02-15T20:36:41.962Z,98727.20
2023-02-15T20:39:20.077Z,98728.60
2023-02-15T20:41:50.005Z,98727.40
2023-02-15T20:44:18.760Z,98731.40
2023-02-15T20:46:45.864Z,98728.00
2023-02-15T20:49:13.087Z,98724.80
2023-02-15T20:51:44.622Z,98731.00
2023-02-15T20:54:16.806Z,98729.80
2023-02-15T20:56:44.403Z,98727.80
2023-02-15T20:59:27.084Z,98727.40
2023-02-15T21:01:59.158Z,98729.00
2023-02-15T21:04:32.331Z,98729.60
2023-02-15T21:07:00.874Z,98731.60
2023-02-15T21:09:28.472Z,98735.20
2023-02-15T21:11:58.398Z,98734.80
2023-02-15T21:14:28.549Z,98741.40
2023-02-15T21:16:55.613Z,98738.80
2023-02-15T21:19:24.190Z,98741.00
2023-02-15T21:21:53.416Z,98741.60
2023-02-15T21:24:28.937Z,98742.00
2023-02-15T21:26:57.326Z,98743.40
2023-02-15T21:29:26.925Z,98743.00
2023-02-15T21:31:54.441Z,98742.40
2023-02-15T21:34:21.533Z,98746.20
2023-02-15T21:36:50.897Z,98743.20
2023-02-15T21:39:22.252Z,98740.60
2023-02-15T21:42:10.012Z,98742.60
2023-02-15T21:44:56.013Z,98739.80
2023-02-15T21:47:49.945Z,98744.40
2023-02-15T21:50:38.692Z,98747.00
2023-02-15T21:53:12.161Z,98748.20
2023-02-15T21:55:39.624Z,98747.40
2023-02-15T21:58:06.599Z,98750.60
2023-02-15T22:00:34.113Z,98746.80
2023-02-15T22:03:05.984Z,98752.80
2023-02-15T22:05:33.981Z,98757.20
2023-02-15T22:08:01.145Z,98753.20
2023-02-15T22:10:32.732Z,98757.20
2023-02-15T22:13:01.695Z,98752.00
2023-02-15T22:15:34.356Z,98755.20
2023-02-15T22:18:01.608Z,98750.40
2023-02-15T22:20:28.529Z,98749.40
2023-02-15T22:22:55.429Z,98746.60
2023-02-15T22:25:24.710Z,98747.00
2023-02-15T22:27:53.760Z,98752.00
2023-02-15T22:30:42.410Z,98746.00
2023-02-15T22:33:20.983Z,98741.40
2023-02-15T22:35:47.971Z,98746.80
2023-02-15T22:38:15.021Z,98745.40
2023-02-15T22:40:41.979Z,98744.80
2023-02-15T22:43:34.098Z,98742.40
2023-02-15T22:46:04.848Z,98739.40
2023-02-15T22:48:31.826Z,98739.60
2023-02-15T22:50:59.032Z,98740.40
2023-02-15T22:53:26.492Z,98738.60
2023-02-15T22:55:54.625Z,98739.60
2023-02-15T22:58:25.358Z,98740.40
2023-02-15T23:00:52.645Z,98738.80
2023-02-15T23:03:23.661Z,98740.80
2023-02-15T23:05:50.972Z,98743.60
2023-02-15T23:08:19.623Z,98742.60
2023-02-15T23:10:52.052Z,98745.00
2023-02-15T23:13:47.510Z,98744.20
2023-02-15T23:16:17.578Z,98744.60
2023-02-15T23:18:46.821Z,98748.20
2023-02-15T23:21:22.066Z,98746.00
2023-02-15T23:23:52.933Z,98747.20
2023-02-15T23:26:27.958Z,98748.00
2023-02-15T23:28:57.179Z,98749.40
2023-02-15T23:31:38.835Z,98745.40
2023-02-15T23:34:22.263Z,98742.80
2023-02-15T23:36:49.508Z,98737.00
2023-02-15T23:39:38.778Z,98732.80
2023-02-15T23:42:19.744Z,98731.80
2023-02-15T23:44:49.078Z,98729.00
2023-02-15T23:47:42.656Z,98728.40
2023-02-15T23:50:17.599Z,98724.40
2023-02-15T23:52:44.907Z,98725.20
2023-02-15T23:55:15.435Z,98725.60
2023-02-15T23:57:43.807Z,98725.40
